sensor_id;sensor_type;location;lat;lon;timestamp;temperature;humidity
30308;DHT22;17114;52.314;8.910;2023-07-16T00:01:47;19.50;99.90
30308;DHT22;17114;52.314;8.910;2023-07-16T00:04:14;19.50;99.90
30308;DHT22;17114;52.314;8.910;2023-07-16T00:06:41;19.50;99.90
30308;DHT22;17114;52.314;8.910;2023-07-16T00:09:08;19.60;99.90
30308;DHT22;17114;52.314;8.910;2023-07-16T00:11:38;19.60;99.90
30308;DHT22;17114;52.314;8.910;2023-07-16T00:14:05;19.60;99.90
30308;DHT22;17114;52.314;8.910;2023-07-16T00:16:32;19.60;99.90
30308;DHT22;17114;52.314;8.910;2023-07-16T00:18:59;19.60;99.90
30308;DHT22;17114;52.314;8.910;2023-07-16T00:21:26;19.60;99.90
30308;DHT22;17114;52.314;8.910;2023-07-16T00:23:53;19.50;99.90
30308;DHT22;17114;52.314;8.910;2023-07-16T00:26:22;19.50;99.90
30308;DHT22;17114;52.314;8.910;2023-07-16T00:28:49;19.50;99.90
30308;DHT22;17114;52.314;8.910;2023-07-16T00:31:16;19.40;99.90
30308;DHT22;17114;52.314;8.910;2023-07-16T00:33:44;19.40;99.90
30308;DHT22;17114;52.314;8.910;2023-07-16T00:36:11;19.50;99.90
30308;DHT22;17114;52.314;8.910;2023-07-16T00:38:38;19.50;99.90
30308;DHT22;17114;52.314;8.910;2023-07-16T00:41:07;19.50;99.90
30308;DHT22;17114;52.314;8.910;2023-07-16T00:43:34;19.50;99.90
30308;DHT22;17114;52.314;8.910;2023-07-16T00:46:01;19.50;99.90
30308;DHT22;17114;52.314;8.910;2023-07-16T00:48:29;19.50;99.90
30308;DHT22;17114;52.314;8.910;2023-07-16T00:50:56;19.50;99.90
30308;DHT22;17114;52.314;8.910;2023-07-16T00:53:24;19.50;99.90
30308;DHT22;17114;52.314;8.910;2023-07-16T00:55:51;19.50;99.90
30308;DHT22;17114;52.314;8.910;2023-07-16T00:58:18;19.50;99.90
30308;DHT22;17114;52.314;8.910;2023-07-16T01:00:45;19.50;99.90
30308;DHT22;17114;52.314;8.910;2023-07-16T01:03:14;19.50;99.90
30308;DHT22;17114;52.314;8.910;2023-07-16T01:08:09;19.50;99.90
30308;DHT22;17114;52.314;8.910;2023-07-16T01:10:41;19.50;99.90
30308;DHT22;17114;52.314;8.910;2023-07-16T01:13:09;19.50;99.90
30308;DHT22;17114;52.314;8.910;2023-07-16T01:15:36;19.50;99.90
30308;DHT22;17114;52.314;8.910;2023-07-16T01:18:04;19.50;99.90
30308;DHT22;17114;52.314;8.910;2023-07-16T01:20:32;19.40;99.90
30308;DHT22;17114;52.314;8.910;2023-07-16T01:23:33;19.40;99.90
30308;DHT22;17114;52.314;8.910;2023-07-16T01:31:34;19.30;99.90
30308;DHT22;17114;52.314;8.910;2023-07-16T01:34:03;19.40;99.90
30308;DHT22;17114;52.314;8.910;2023-07-16T01:36:33;19.40;99.90
30308;DHT22;17114;52.314;8.910;2023-07-16T01:39:02;19.30;99.90
30308;DHT22;17114;52.314;8.910;2023-07-16T01:41:29;19.30;99.90
30308;DHT22;17114;52.314;8.910;2023-07-16T01:43:56;19.30;99.90
30308;DHT22;17114;52.314;8.910;2023-07-16T01:46:23;19.20;99.90
30308;DHT22;17114;52.314;8.910;2023-07-16T01:48:50;19.20;99.90
30308;DHT22;17114;52.314;8.910;2023-07-16T01:51:17;19.20;99.90
30308;DHT22;17114;52.314;8.910;2023-07-16T01:53:47;19.30;99.90
30308;DHT22;17114;52.314;8.910;2023-07-16T01:56:14;19.30;99.90
30308;DHT22;17114;52.314;8.910;2023-07-16T01:58:41;19.30;99.90
30308;DHT22;17114;52.314;8.910;2023-07-16T02:01:08;19.30;99.90
30308;DHT22;17114;52.314;8.910;2023-07-16T02:03:35;19.30;99.90
30308;DHT22;17114;52.314;8.910;2023-07-16T02:06:02;19.30;99.90
30308;DHT22;17114;52.314;8.910;2023-07-16T02:08:29;19.40;99.90
30308;DHT22;17114;52.314;8.910;2023-07-16T02:10:56;19.40;99.90
30308;DHT22;17114;52.314;8.910;2023-07-16T02:13:23;19.30;99.90
30308;DHT22;17114;52.314;8.910;2023-07-16T02:15:50;19.30;99.90
30308;DHT22;17114;52.314;8.910;2023-07-16T02:18:17;19.30;99.90
30308;DHT22;17114;52.314;8.910;2023-07-16T02:20:44;19.30;99.90
30308;DHT22;17114;52.314;8.910;2023-07-16T02:23:11;19.30;99.90
30308;DHT22;17114;52.314;8.910;2023-07-16T02:25:38;19.20;99.90
30308;DHT22;17114;52.314;8.910;2023-07-16T02:28:05;19.20;99.90
30308;DHT22;17114;52.314;8.910;2023-07-16T02:30:32;19.20;99.90
30308;DHT22;17114;52.314;8.910;2023-07-16T02:32:59;19.20;99.90
30308;DHT22;17114;52.314;8.910;2023-07-16T02:35:26;19.20;99.90
30308;DHT22;17114;52.314;8.910;2023-07-16T02:37:53;19.20;99.90
30308;DHT22;17114;52.314;8.910;2023-07-16T02:40:21;19.20;99.90
30308;DHT22;17114;52.314;8.910;2023-07-16T02:42:48;19.20;99.90
30308;DHT22;17114;52.314;8.910;2023-07-16T02:45:15;19.10;99.90
30308;DHT22;17114;52.314;8.910;2023-07-16T02:47:42;19.10;99.90
30308;DHT22;17114;52.314;8.910;2023-07-16T02:50:10;19.00;99.90
30308;DHT22;17114;52.314;8.910;2023-07-16T02:52:37;19.00;99.90
30308;DHT22;17114;52.314;8.910;2023-07-16T02:55:04;19.00;99.90
30308;DHT22;17114;52.314;8.910;2023-07-16T02:57:31;19.00;99.90
30308;DHT22;17114;52.314;8.910;2023-07-16T02:59:58;19.00;99.90
30308;DHT22;17114;52.314;8.910;2023-07-16T03:02:25;19.00;99.90
30308;DHT22;17114;52.314;8.910;2023-07-16T03:04:53;18.90;99.90
30308;DHT22;17114;52.314;8.910;2023-07-16T03:07:21;18.90;99.90
30308;DHT22;17114;52.314;8.910;2023-07-16T03:09:48;18.90;99.90
30308;DHT22;17114;52.314;8.910;2023-07-16T03:12:15;18.80;99.90
30308;DHT22;17114;52.314;8.910;2023-07-16T03:14:42;18.80;99.90
30308;DHT22;17114;52.314;8.910;2023-07-16T03:17:09;18.80;99.90
30308;DHT22;17114;52.314;8.910;2023-07-16T03:19:37;18.80;99.90
30308;DHT22;17114;52.314;8.910;2023-07-16T03:22:04;18.80;99.90
30308;DHT22;17114;52.314;8.910;2023-07-16T03:24:31;18.70;99.90
30308;DHT22;17114;52.314;8.910;2023-07-16T03:26:58;18.70;99.90
30308;DHT22;17114;52.314;8.910;2023-07-16T03:29:42;18.60;99.90
30308;DHT22;17114;52.314;8.910;2023-07-16T03:32:09;18.60;99.90
30308;DHT22;17114;52.314;8.910;2023-07-16T03:34:36;18.50;99.90
30308;DHT22;17114;52.314;8.910;2023-07-16T03:37:03;18.50;99.90
30308;DHT22;17114;52.314;8.910;2023-07-16T03:39:30;18.40;99.90
30308;DHT22;17114;52.314;8.910;2023-07-16T03:41:57;18.40;99.90
30308;DHT22;17114;52.314;8.910;2023-07-16T03:44:24;18.30;99.90
30308;DHT22;17114;52.314;8.910;2023-07-16T03:46:51;18.30;99.90
30308;DHT22;17114;52.314;8.910;2023-07-16T03:49:18;18.30;99.90
30308;DHT22;17114;52.314;8.910;2023-07-16T03:51:45;18.30;99.90
30308;DHT22;17114;52.314;8.910;2023-07-16T03:54:12;18.30;99.90
30308;DHT22;17114;52.314;8.910;2023-07-16T03:56:39;18.20;99.90
30308;DHT22;17114;52.314;8.910;2023-07-16T03:59:06;18.20;99.90
30308;DHT22;17114;52.314;8.910;2023-07-16T04:01:33;18.30;99.90
30308;DHT22;17114;52.314;8.910;2023-07-16T04:04:00;18.30;99.90
30308;DHT22;17114;52.314;8.910;2023-07-16T04:06:28;18.30;99.90
30308;DHT22;17114;52.314;8.910;2023-07-16T04:08:55;18.30;99.90
30308;DHT22;17114;52.314;8.910;2023-07-16T04:11:22;18.30;99.90
30308;DHT22;17114;52.314;8.910;2023-07-16T04:13:48;18.30;99.90
30308;DHT22;17114;52.314;8.910;2023-07-16T04:16:15;18.30;99.90
30308;DHT22;17114;52.314;8.910;2023-07-16T04:18:43;18.30;99.90
30308;DHT22;17114;52.314;8.910;2023-07-16T04:21:10;18.40;99.90
30308;DHT22;17114;52.314;8.910;2023-07-16T04:23:40;18.40;99.90
30308;DHT22;17114;52.314;8.910;2023-07-16T04:26:07;18.50;99.90
30308;DHT22;17114;52.314;8.910;2023-07-16T04:28:34;18.50;99.90
30308;DHT22;17114;52.314;8.910;2023-07-16T04:31:01;18.60;99.90
30308;DHT22;17114;52.314;8.910;2023-07-16T04:33:28;18.60;99.90
30308;DHT22;17114;52.314;8.910;2023-07-16T04:35:55;18.70;99.90
30308;DHT22;17114;52.314;8.910;2023-07-16T04:38:22;18.80;99.90
30308;DHT22;17114;52.314;8.910;2023-07-16T04:40:49;18.80;99.90
30308;DHT22;17114;52.314;8.910;2023-07-16T04:43:16;19.10;99.90
30308;DHT22;17114;52.314;8.910;2023-07-16T04:45:44;19.40;99.90
30308;DHT22;17114;52.314;8.910;2023-07-16T04:48:13;19.80;99.90
30308;DHT22;17114;52.314;8.910;2023-07-16T04:50:41;20.10;99.90
30308;DHT22;17114;52.314;8.910;2023-07-16T04:53:08;20.40;99.90
30308;DHT22;17114;52.314;8.910;2023-07-16T04:55:39;20.90;99.90
30308;DHT22;17114;52.314;8.910;2023-07-16T04:58:06;21.30;99.90
30308;DHT22;17114;52.314;8.910;2023-07-16T05:00:33;21.40;99.90
30308;DHT22;17114;52.314;8.910;2023-07-16T05:03:00;21.50;99.90
30308;DHT22;17114;52.314;8.910;2023-07-16T05:05:28;21.70;99.90
30308;DHT22;17114;52.314;8.910;2023-07-16T05:07:55;22.00;99.90
30308;DHT22;17114;52.314;8.910;2023-07-16T05:10:22;22.10;99.90
30308;DHT22;17114;52.314;8.910;2023-07-16T05:12:49;22.20;99.90
30308;DHT22;17114;52.314;8.910;2023-07-16T05:15:16;22.50;99.90
30308;DHT22;17114;52.314;8.910;2023-07-16T05:17:43;22.60;99.90
30308;DHT22;17114;52.314;8.910;2023-07-16T05:20:11;22.50;99.90
30308;DHT22;17114;52.314;8.910;2023-07-16T05:22:38;22.80;99.90
30308;DHT22;17114;52.314;8.910;2023-07-16T05:25:05;22.90;99.90
30308;DHT22;17114;52.314;8.910;2023-07-16T05:27:32;22.90;99.90
30308;DHT22;17114;52.314;8.910;2023-07-16T05:29:59;23.10;99.90
30308;DHT22;17114;52.314;8.910;2023-07-16T05:32:26;23.20;99.90
30308;DHT22;17114;52.314;8.910;2023-07-16T05:34:53;23.30;99.90
30308;DHT22;17114;52.314;8.910;2023-07-16T05:37:20;23.50;99.90
30308;DHT22;17114;52.314;8.910;2023-07-16T05:39:47;23.60;99.90
30308;DHT22;17114;52.314;8.910;2023-07-16T05:42:14;23.60;99.90
30308;DHT22;17114;52.314;8.910;2023-07-16T05:44:41;23.60;99.90
30308;DHT22;17114;52.314;8.910;2023-07-16T05:47:08;23.40;99.90
30308;DHT22;17114;52.314;8.910;2023-07-16T05:49:36;23.40;99.90
30308;DHT22;17114;52.314;8.910;2023-07-16T05:52:03;23.10;99.90
30308;DHT22;17114;52.314;8.910;2023-07-16T05:54:30;22.80;99.90
30308;DHT22;17114;52.314;8.910;2023-07-16T05:57:00;22.80;99.90
30308;DHT22;17114;52.314;8.910;2023-07-16T05:59:27;22.50;99.90
30308;DHT22;17114;52.314;8.910;2023-07-16T06:02:01;22.40;99.90
30308;DHT22;17114;52.314;8.910;2023-07-16T06:04:28;22.40;99.90
30308;DHT22;17114;52.314;8.910;2023-07-16T06:06:56;22.60;99.90
30308;DHT22;17114;52.314;8.910;2023-07-16T06:09:23;23.10;99.90
30308;DHT22;17114;52.314;8.910;2023-07-16T06:11:50;23.30;99.90
30308;DHT22;17114;52.314;8.910;2023-07-16T06:14:18;23.90;99.90
30308;DHT22;17114;52.314;8.910;2023-07-16T06:16:45;24.20;99.90
30308;DHT22;17114;52.314;8.910;2023-07-16T06:19:12;24.40;99.90
30308;DHT22;17114;52.314;8.910;2023-07-16T06:21:39;24.20;99.90
30308;DHT22;17114;52.314;8.910;2023-07-16T06:24:06;24.00;99.90
30308;DHT22;17114;52.314;8.910;2023-07-16T06:26:33;24.10;99.90
30308;DHT22;17114;52.314;8.910;2023-07-16T06:29:00;24.10;99.90
30308;DHT22;17114;52.314;8.910;2023-07-16T06:31:27;23.90;99.90
30308;DHT22;17114;52.314;8.910;2023-07-16T06:33:54;23.50;99.90
30308;DHT22;17114;52.314;8.910;2023-07-16T06:36:21;23.40;99.90
30308;DHT22;17114;52.314;8.910;2023-07-16T06:38:48;23.40;99.90
30308;DHT22;17114;52.314;8.910;2023-07-16T06:41:15;23.30;99.90
30308;DHT22;17114;52.314;8.910;2023-07-16T06:43:41;23.70;99.90
30308;DHT22;17114;52.314;8.910;2023-07-16T06:46:08;24.00;99.90
30308;DHT22;17114;52.314;8.910;2023-07-16T06:48:35;24.40;99.90
30308;DHT22;17114;52.314;8.910;2023-07-16T06:51:03;24.60;99.90
30308;DHT22;17114;52.314;8.910;2023-07-16T06:53:30;24.00;99.90
30308;DHT22;17114;52.314;8.910;2023-07-16T06:56:00;23.80;99.90
30308;DHT22;17114;52.314;8.910;2023-07-16T06:58:33;23.90;99.90
30308;DHT22;17114;52.314;8.910;2023-07-16T07:01:00;23.90;99.90
30308;DHT22;17114;52.314;8.910;2023-07-16T07:03:28;24.10;99.90
30308;DHT22;17114;52.314;8.910;2023-07-16T07:05:55;24.00;99.90
30308;DHT22;17114;52.314;8.910;2023-07-16T07:08:22;24.20;99.90
30308;DHT22;17114;52.314;8.910;2023-07-16T07:10:49;24.40;99.90
30308;DHT22;17114;52.314;8.910;2023-07-16T07:13:16;24.50;99.90
30308;DHT22;17114;52.314;8.910;2023-07-16T07:15:43;24.50;99.90
30308;DHT22;17114;52.314;8.910;2023-07-16T07:18:10;24.50;99.90
30308;DHT22;17114;52.314;8.910;2023-07-16T07:20:38;24.90;99.90
30308;DHT22;17114;52.314;8.910;2023-07-16T07:23:05;25.30;99.90
30308;DHT22;17114;52.314;8.910;2023-07-16T07:25:32;25.10;99.90
30308;DHT22;17114;52.314;8.910;2023-07-16T07:28:00;25.00;99.90
30308;DHT22;17114;52.314;8.910;2023-07-16T07:30:27;25.00;99.90
30308;DHT22;17114;52.314;8.910;2023-07-16T07:32:54;25.20;99.90
30308;DHT22;17114;52.314;8.910;2023-07-16T07:35:21;25.60;99.90
30308;DHT22;17114;52.314;8.910;2023-07-16T07:37:48;25.30;99.90
30308;DHT22;17114;52.314;8.910;2023-07-16T07:40:15;25.40;99.90
30308;DHT22;17114;52.314;8.910;2023-07-16T07:42:42;25.30;99.90
30308;DHT22;17114;52.314;8.910;2023-07-16T07:45:09;24.90;99.90
30308;DHT22;17114;52.314;8.910;2023-07-16T07:47:36;24.20;99.90
30308;DHT22;17114;52.314;8.910;2023-07-16T07:50:04;23.80;99.90
30308;DHT22;17114;52.314;8.910;2023-07-16T07:52:31;23.70;99.90
30308;DHT22;17114;52.314;8.910;2023-07-16T07:55:01;24.40;99.90
30308;DHT22;17114;52.314;8.910;2023-07-16T07:57:28;24.90;99.90
30308;DHT22;17114;52.314;8.910;2023-07-16T07:59:55;25.50;99.90
30308;DHT22;17114;52.314;8.910;2023-07-16T08:02:26;25.80;99.90
30308;DHT22;17114;52.314;8.910;2023-07-16T08:04:54;26.00;99.90
30308;DHT22;17114;52.314;8.910;2023-07-16T08:07:22;26.20;99.90
30308;DHT22;17114;52.314;8.910;2023-07-16T08:09:49;26.30;99.90
30308;DHT22;17114;52.314;8.910;2023-07-16T08:12:16;26.10;99.90
30308;DHT22;17114;52.314;8.910;2023-07-16T08:14:43;25.60;99.90
30308;DHT22;17114;52.314;8.910;2023-07-16T08:17:10;25.30;99.90
30308;DHT22;17114;52.314;8.910;2023-07-16T08:19:38;24.60;99.90
30308;DHT22;17114;52.314;8.910;2023-07-16T08:22:05;24.10;99.90
30308;DHT22;17114;52.314;8.910;2023-07-16T08:24:32;23.80;99.90
30308;DHT22;17114;52.314;8.910;2023-07-16T08:26:59;24.00;99.90
30308;DHT22;17114;52.314;8.910;2023-07-16T08:29:26;23.80;99.90
30308;DHT22;17114;52.314;8.910;2023-07-16T08:31:53;24.30;99.90
30308;DHT22;17114;52.314;8.910;2023-07-16T08:34:20;24.90;99.90
30308;DHT22;17114;52.314;8.910;2023-07-16T08:36:47;25.70;99.90
30308;DHT22;17114;52.314;8.910;2023-07-16T08:39:14;25.70;99.90
30308;DHT22;17114;52.314;8.910;2023-07-16T08:41:43;25.30;99.90
30308;DHT22;17114;52.314;8.910;2023-07-16T08:44:11;25.00;99.90
30308;DHT22;17114;52.314;8.910;2023-07-16T08:46:39;25.40;99.90
30308;DHT22;17114;52.314;8.910;2023-07-16T08:49:07;25.50;99.90
30308;DHT22;17114;52.314;8.910;2023-07-16T08:51:35;25.10;99.90
30308;DHT22;17114;52.314;8.910;2023-07-16T08:54:03;25.10;99.90
30308;DHT22;17114;52.314;8.910;2023-07-16T08:56:30;25.10;99.90
30308;DHT22;17114;52.314;8.910;2023-07-16T08:58:57;24.90;99.90
30308;DHT22;17114;52.314;8.910;2023-07-16T09:01:25;25.00;99.90
30308;DHT22;17114;52.314;8.910;2023-07-16T09:03:53;24.70;99.90
30308;DHT22;17114;52.314;8.910;2023-07-16T09:06:20;24.20;99.90
30308;DHT22;17114;52.314;8.910;2023-07-16T09:08:48;23.60;99.90
30308;DHT22;17114;52.314;8.910;2023-07-16T09:11:15;23.40;99.90
30308;DHT22;17114;52.314;8.910;2023-07-16T09:13:48;23.40;99.90
30308;DHT22;17114;52.314;8.910;2023-07-16T09:16:18;23.70;99.90
30308;DHT22;17114;52.314;8.910;2023-07-16T09:18:45;24.20;99.90
30308;DHT22;17114;52.314;8.910;2023-07-16T09:21:13;24.90;99.90
30308;DHT22;17114;52.314;8.910;2023-07-16T09:23:41;25.20;99.90
30308;DHT22;17114;52.314;8.910;2023-07-16T09:26:08;25.70;99.90
30308;DHT22;17114;52.314;8.910;2023-07-16T09:28:36;25.80;99.90
30308;DHT22;17114;52.314;8.910;2023-07-16T09:31:06;25.70;99.90
30308;DHT22;17114;52.314;8.910;2023-07-16T09:33:34;25.50;99.90
30308;DHT22;17114;52.314;8.910;2023-07-16T09:36:03;25.60;99.90
30308;DHT22;17114;52.314;8.910;2023-07-16T09:38:32;25.90;99.90
30308;DHT22;17114;52.314;8.910;2023-07-16T09:40:59;26.20;99.90
30308;DHT22;17114;52.314;8.910;2023-07-16T09:43:28;26.00;99.90
30308;DHT22;17114;52.314;8.910;2023-07-16T09:45:55;26.30;99.90
30308;DHT22;17114;52.314;8.910;2023-07-16T09:48:22;26.50;99.90
30308;DHT22;17114;52.314;8.910;2023-07-16T09:50:53;26.60;99.90
30308;DHT22;17114;52.314;8.910;2023-07-16T09:53:21;26.00;99.90
30308;DHT22;17114;52.314;8.910;2023-07-16T09:55:52;25.80;99.90
30308;DHT22;17114;52.314;8.910;2023-07-16T09:58:20;25.80;99.90
30308;DHT22;17114;52.314;8.910;2023-07-16T10:00:50;26.10;99.90
30308;DHT22;17114;52.314;8.910;2023-07-16T10:03:17;26.30;99.90
30308;DHT22;17114;52.314;8.910;2023-07-16T10:05:45;26.20;99.90
30308;DHT22;17114;52.314;8.910;2023-07-16T10:08:17;25.40;99.90
30308;DHT22;17114;52.314;8.910;2023-07-16T10:10:52;25.50;99.90
30308;DHT22;17114;52.314;8.910;2023-07-16T10:13:23;25.30;99.90
30308;DHT22;17114;52.314;8.910;2023-07-16T10:15:54;25.30;99.90
30308;DHT22;17114;52.314;8.910;2023-07-16T10:18:26;25.50;99.90
30308;DHT22;17114;52.314;8.910;2023-07-16T10:20:59;25.70;99.90
30308;DHT22;17114;52.314;8.910;2023-07-16T10:23:37;25.40;99.90
30308;DHT22;17114;52.314;8.910;2023-07-16T10:26:05;25.10;99.90
30308;DHT22;17114;52.314;8.910;2023-07-16T10:28:33;24.70;99.90
30308;DHT22;17114;52.314;8.910;2023-07-16T10:31:01;24.40;99.90
30308;DHT22;17114;52.314;8.910;2023-07-16T10:33:28;24.40;99.90
30308;DHT22;17114;52.314;8.910;2023-07-16T10:35:57;25.00;99.90
30308;DHT22;17114;52.314;8.910;2023-07-16T10:38:27;25.20;99.90
30308;DHT22;17114;52.314;8.910;2023-07-16T10:40:55;24.80;99.90
30308;DHT22;17114;52.314;8.910;2023-07-16T10:43:24;24.80;99.90
30308;DHT22;17114;52.314;8.910;2023-07-16T10:45:52;24.50;99.90
30308;DHT22;17114;52.314;8.910;2023-07-16T10:48:24;24.60;99.90
30308;DHT22;17114;52.314;8.910;2023-07-16T10:50:53;24.50;99.90
30308;DHT22;17114;52.314;8.910;2023-07-16T10:53:21;24.50;99.90
30308;DHT22;17114;52.314;8.910;2023-07-16T10:55:48;24.80;99.90
30308;DHT22;17114;52.314;8.910;2023-07-16T10:58:16;24.50;99.90
30308;DHT22;17114;52.314;8.910;2023-07-16T11:00:44;24.40;99.90
30308;DHT22;17114;52.314;8.910;2023-07-16T11:03:15;24.10;99.90
30308;DHT22;17114;52.314;8.910;2023-07-16T11:05:46;24.00;99.90
30308;DHT22;17114;52.314;8.910;2023-07-16T11:08:24;24.30;99.90
30308;DHT22;17114;52.314;8.910;2023-07-16T11:10:56;24.70;99.90
30308;DHT22;17114;52.314;8.910;2023-07-16T11:13:27;25.30;99.90
30308;DHT22;17114;52.314;8.910;2023-07-16T11:15:55;25.10;99.90
30308;DHT22;17114;52.314;8.910;2023-07-16T11:18:23;24.90;99.90
30308;DHT22;17114;52.314;8.910;2023-07-16T11:20:54;24.90;99.90
30308;DHT22;17114;52.314;8.910;2023-07-16T11:23:23;25.40;99.90
30308;DHT22;17114;52.314;8.910;2023-07-16T11:25:51;25.90;99.90
30308;DHT22;17114;52.314;8.910;2023-07-16T11:28:18;26.10;99.90
30308;DHT22;17114;52.314;8.910;2023-07-16T11:30:45;26.10;99.90
30308;DHT22;17114;52.314;8.910;2023-07-16T11:33:13;26.20;99.90
30308;DHT22;17114;52.314;8.910;2023-07-16T11:35:40;26.40;99.90
30308;DHT22;17114;52.314;8.910;2023-07-16T11:38:07;26.70;99.90
30308;DHT22;17114;52.314;8.910;2023-07-16T11:40:35;26.90;99.90
30308;DHT22;17114;52.314;8.910;2023-07-16T11:43:11;27.30;99.90
30308;DHT22;17114;52.314;8.910;2023-07-16T11:45:39;27.10;99.90
30308;DHT22;17114;52.314;8.910;2023-07-16T11:48:07;27.20;99.90
30308;DHT22;17114;52.314;8.910;2023-07-16T11:50:34;27.20;99.90
30308;DHT22;17114;52.314;8.910;2023-07-16T11:53:01;27.00;99.90
30308;DHT22;17114;52.314;8.910;2023-07-16T11:55:28;27.20;99.90
30308;DHT22;17114;52.314;8.910;2023-07-16T11:57:55;27.20;99.90
30308;DHT22;17114;52.314;8.910;2023-07-16T12:00:26;27.10;99.90
30308;DHT22;17114;52.314;8.910;2023-07-16T12:02:53;27.20;99.90
30308;DHT22;17114;52.314;8.910;2023-07-16T12:05:22;27.20;99.90
30308;DHT22;17114;52.314;8.910;2023-07-16T12:08:07;26.90;99.90
30308;DHT22;17114;52.314;8.910;2023-07-16T12:10:41;26.10;99.90
30308;DHT22;17114;52.314;8.910;2023-07-16T12:13:08;25.80;99.90
30308;DHT22;17114;52.314;8.910;2023-07-16T12:16:06;25.80;99.90
30308;DHT22;17114;52.314;8.910;2023-07-16T12:18:33;25.60;99.90
30308;DHT22;17114;52.314;8.910;2023-07-16T12:21:00;25.20;99.90
30308;DHT22;17114;52.314;8.910;2023-07-16T12:23:27;25.00;99.90
30308;DHT22;17114;52.314;8.910;2023-07-16T12:25:54;25.00;99.90
30308;DHT22;17114;52.314;8.910;2023-07-16T12:28:21;24.90;99.90
30308;DHT22;17114;52.314;8.910;2023-07-16T12:30:48;24.70;99.90
30308;DHT22;17114;52.314;8.910;2023-07-16T12:33:15;24.50;99.90
30308;DHT22;17114;52.314;8.910;2023-07-16T12:35:42;24.50;99.90
30308;DHT22;17114;52.314;8.910;2023-07-16T12:38:11;25.20;99.90
30308;DHT22;17114;52.314;8.910;2023-07-16T12:40:38;25.60;99.90
30308;DHT22;17114;52.314;8.910;2023-07-16T12:43:07;25.50;99.90
30308;DHT22;17114;52.314;8.910;2023-07-16T12:45:34;25.50;99.90
30308;DHT22;17114;52.314;8.910;2023-07-16T12:48:01;25.20;99.90
30308;DHT22;17114;52.314;8.910;2023-07-16T12:50:28;24.90;99.90
30308;DHT22;17114;52.314;8.910;2023-07-16T12:52:56;24.80;99.90
30308;DHT22;17114;52.314;8.910;2023-07-16T12:55:23;24.90;99.90
30308;DHT22;17114;52.314;8.910;2023-07-16T12:57:50;24.90;99.90
30308;DHT22;17114;52.314;8.910;2023-07-16T13:00:17;24.90;99.90
30308;DHT22;17114;52.314;8.910;2023-07-16T13:02:44;25.20;99.90
30308;DHT22;17114;52.314;8.910;2023-07-16T13:05:11;25.20;99.90
30308;DHT22;17114;52.314;8.910;2023-07-16T13:07:38;25.10;99.90
30308;DHT22;17114;52.314;8.910;2023-07-16T13:10:08;25.00;99.90
30308;DHT22;17114;52.314;8.910;2023-07-16T13:12:49;25.10;99.90
30308;DHT22;17114;52.314;8.910;2023-07-16T13:15:16;25.00;99.90
30308;DHT22;17114;52.314;8.910;2023-07-16T13:17:43;25.20;99.90
30308;DHT22;17114;52.314;8.910;2023-07-16T13:20:10;25.40;99.90
30308;DHT22;17114;52.314;8.910;2023-07-16T13:22:38;25.70;99.90
30308;DHT22;17114;52.314;8.910;2023-07-16T13:25:06;25.50;99.90
30308;DHT22;17114;52.314;8.910;2023-07-16T13:27:33;25.20;99.90
30308;DHT22;17114;52.314;8.910;2023-07-16T13:30:00;25.00;99.90
30308;DHT22;17114;52.314;8.910;2023-07-16T13:32:27;24.80;99.90
30308;DHT22;17114;52.314;8.910;2023-07-16T13:34:54;24.90;99.90
30308;DHT22;17114;52.314;8.910;2023-07-16T13:37:21;24.90;99.90
30308;DHT22;17114;52.314;8.910;2023-07-16T13:39:48;25.00;99.90
30308;DHT22;17114;52.314;8.910;2023-07-16T13:42:15;25.10;99.90
30308;DHT22;17114;52.314;8.910;2023-07-16T13:44:49;25.10;99.90
30308;DHT22;17114;52.314;8.910;2023-07-16T13:47:17;25.30;99.90
30308;DHT22;17114;52.314;8.910;2023-07-16T13:49:44;25.60;99.90
30308;DHT22;17114;52.314;8.910;2023-07-16T13:52:11;25.80;99.90
30308;DHT22;17114;52.314;8.910;2023-07-16T13:54:38;25.50;99.90
30308;DHT22;17114;52.314;8.910;2023-07-16T13:57:08;25.10;99.90
30308;DHT22;17114;52.314;8.910;2023-07-16T13:59:35;25.00;99.90
30308;DHT22;17114;52.314;8.910;2023-07-16T14:02:03;25.30;99.90
30308;DHT22;17114;52.314;8.910;2023-07-16T14:04:30;25.50;99.90
30308;DHT22;17114;52.314;8.910;2023-07-16T14:06:58;25.80;99.90
30308;DHT22;17114;52.314;8.910;2023-07-16T14:09:25;26.00;99.90
30308;DHT22;17114;52.314;8.910;2023-07-16T14:11:52;26.10;99.90
30308;DHT22;17114;52.314;8.910;2023-07-16T14:14:20;26.10;99.90
30308;DHT22;17114;52.314;8.910;2023-07-16T14:16:47;26.30;99.90
30308;DHT22;17114;52.314;8.910;2023-07-16T14:19:14;26.30;99.90
30308;DHT22;17114;52.314;8.910;2023-07-16T14:21:42;26.10;99.90
30308;DHT22;17114;52.314;8.910;2023-07-16T14:24:09;25.90;99.90
30308;DHT22;17114;52.314;8.910;2023-07-16T14:26:36;25.50;99.90
30308;DHT22;17114;52.314;8.910;2023-07-16T14:29:03;25.30;99.90
30308;DHT22;17114;52.314;8.910;2023-07-16T14:31:30;25.00;99.90
30308;DHT22;17114;52.314;8.910;2023-07-16T14:33:57;24.90;99.90
30308;DHT22;17114;52.314;8.910;2023-07-16T14:36:24;24.80;99.90
30308;DHT22;17114;52.314;8.910;2023-07-16T14:38:51;24.70;99.90
30308;DHT22;17114;52.314;8.910;2023-07-16T14:41:18;24.60;99.90
30308;DHT22;17114;52.314;8.910;2023-07-16T14:43:45;24.60;99.90
30308;DHT22;17114;52.314;8.910;2023-07-16T14:46:15;24.50;99.90
30308;DHT22;17114;52.314;8.910;2023-07-16T14:48:45;24.50;99.90
30308;DHT22;17114;52.314;8.910;2023-07-16T14:51:12;24.40;99.90
30308;DHT22;17114;52.314;8.910;2023-07-16T14:53:40;24.50;99.90
30308;DHT22;17114;52.314;8.910;2023-07-16T14:56:07;24.70;99.90
30308;DHT22;17114;52.314;8.910;2023-07-16T14:58:34;24.70;99.90
30308;DHT22;17114;52.314;8.910;2023-07-16T15:01:03;24.70;99.90
30308;DHT22;17114;52.314;8.910;2023-07-16T15:03:35;24.60;99.90
30308;DHT22;17114;52.314;8.910;2023-07-16T15:06:07;24.70;99.90
30308;DHT22;17114;52.314;8.910;2023-07-16T15:08:34;24.60;99.90
30308;DHT22;17114;52.314;8.910;2023-07-16T15:11:01;24.50;99.90
30308;DHT22;17114;52.314;8.910;2023-07-16T15:13:29;24.40;99.90
30308;DHT22;17114;52.314;8.910;2023-07-16T15:15:57;24.50;99.90
30308;DHT22;17114;52.314;8.910;2023-07-16T15:18:25;24.50;99.90
30308;DHT22;17114;52.314;8.910;2023-07-16T15:20:58;24.60;99.90
30308;DHT22;17114;52.314;8.910;2023-07-16T15:23:26;24.70;99.90
30308;DHT22;17114;52.314;8.910;2023-07-16T15:25:54;24.50;99.90
30308;DHT22;17114;52.314;8.910;2023-07-16T15:28:21;24.30;99.90
30308;DHT22;17114;52.314;8.910;2023-07-16T15:30:49;24.30;99.90
30308;DHT22;17114;52.314;8.910;2023-07-16T15:33:16;24.30;99.90
30308;DHT22;17114;52.314;8.910;2023-07-16T15:35:43;24.30;99.90
30308;DHT22;17114;52.314;8.910;2023-07-16T15:38:10;24.30;99.90
30308;DHT22;17114;52.314;8.910;2023-07-16T15:40:38;24.30;99.90
30308;DHT22;17114;52.314;8.910;2023-07-16T15:43:05;24.30;99.90